createdAt,value
2023-04-07T00:00:49.762Z,94910.00
2023-04-07T00:01:49.469Z,94906.00
2023-04-07T00:02:49.555Z,94904.00
2023-04-07T00:03:49.624Z,94908.00
2023-04-07T00:04:49.716Z,94908.00
2023-04-07T00:05:49.799Z,94908.00
2023-04-07T00:06:49.793Z,94910.00
2023-04-07T00:07:56.414Z,94908.00
2023-04-07T00:08:50.839Z,94902.00
2023-04-07T00:09:49.824Z,94902.00
2023-04-07T00:10:49.831Z,94904.00
2023-04-07T00:11:49.834Z,94902.00
2023-04-07T00:12:49.858Z,94902.00
2023-04-07T00:13:49.820Z,94902.00
2023-04-07T00:14:49.787Z,94904.00
2023-04-07T00:15:50.311Z,94906.00
2023-04-07T00:16:49.868Z,94904.00
2023-04-07T00:17:50.039Z,94904.00
2023-04-07T00:18:50.027Z,94904.00
2023-04-07T00:19:50.031Z,94902.00
2023-04-07T00:20:50.097Z,94902.00
2023-04-07T00:21:50.140Z,94904.00
2023-04-07T00:22:50.214Z,94902.00
2023-04-07T00:23:50.283Z,94900.00
2023-04-07T00:24:50.285Z,94898.00
2023-04-07T00:25:50.372Z,94900.00
2023-04-07T00:26:50.438Z,94896.00
2023-04-07T00:27:50.572Z,94896.00
2023-04-07T00:28:50.500Z,94896.00
2023-04-07T00:29:50.565Z,94898.00
2023-04-07T00:30:50.652Z,94894.00
2023-04-07T00:31:50.678Z,94894.00
2023-04-07T00:32:50.725Z,94892.00
2023-04-07T00:33:50.701Z,94890.00
2023-04-07T00:34:50.745Z,94892.00
2023-04-07T00:35:50.775Z,94888.00
2023-04-07T00:36:50.821Z,94884.00
2023-04-07T00:37:50.820Z,94884.00
2023-04-07T00:38:50.895Z,94886.00
2023-04-07T00:39:50.874Z,94882.00
2023-04-07T00:40:50.951Z,94884.00
2023-04-07T00:41:50.944Z,94884.00
2023-04-07T00:42:51.000Z,94884.00
2023-04-07T00:43:51.064Z,94882.00
2023-04-07T00:44:51.014Z,94880.00
2023-04-07T00:45:51.008Z,94880.00
2023-04-07T00:46:51.106Z,94878.00
2023-04-07T00:47:51.106Z,94876.00
2023-04-07T00:48:51.115Z,94866.00
2023-04-07T00:49:51.117Z,94866.00
2023-04-07T00:50:51.148Z,94868.00
2023-04-07T00:51:51.133Z,94861.00
2023-04-07T00:52:51.125Z,94861.00
2023-04-07T00:53:51.139Z,94862.00
2023-04-07T00:54:51.141Z,94861.00
2023-04-07T00:55:51.207Z,94861.00
2023-04-07T00:56:51.318Z,94859.00
2023-04-07T00:57:51.426Z,94857.00
2023-04-07T00:58:51.469Z,94857.00
2023-04-07T00:59:51.527Z,94855.00
2023-04-07T01:00:51.487Z,94853.00
2023-04-07T01:01:51.548Z,94853.00
2023-04-07T01:02:51.754Z,94851.00
2023-04-07T01:03:51.780Z,94851.00
2023-04-07T01:04:51.947Z,94849.00
2023-04-07T01:05:51.641Z,94847.00
2023-04-07T01:06:51.635Z,94851.00
2023-04-07T01:07:51.645Z,94849.00
2023-04-07T01:08:51.569Z,94849.00
2023-04-07T01:09:51.642Z,94847.00
2023-04-07T01:10:51.711Z,94847.00
2023-04-07T01:11:51.706Z,94849.00
2023-04-07T01:12:51.702Z,94845.00
2023-04-07T01:13:51.795Z,94845.00
2023-04-07T01:14:51.725Z,94845.00
2023-04-07T01:15:51.783Z,94845.00
2023-04-07T01:16:53.825Z,94845.00
2023-04-07T01:17:51.864Z,94845.00
2023-04-07T01:18:51.834Z,94847.00
2023-04-07T01:19:51.818Z,94845.00
2023-04-07T01:20:51.750Z,94843.00
2023-04-07T01:21:51.773Z,94845.00
2023-04-07T01:22:51.780Z,94843.00
2023-04-07T01:23:51.762Z,94843.00
2023-04-07T01:24:51.748Z,94843.00
2023-04-07T01:25:51.762Z,94841.00
2023-04-07T01:26:51.785Z,94841.00
2023-04-07T01:27:51.707Z,94839.00
2023-04-07T01:28:51.710Z,94839.00
2023-04-07T01:29:51.722Z,94843.00
2023-04-07T01:30:51.734Z,94843.00
2023-04-07T01:31:51.757Z,94845.00
2023-04-07T01:32:51.719Z,94845.00
2023-04-07T01:33:51.722Z,94845.00
2023-04-07T01:34:51.720Z,94847.00
2023-04-07T01:35:51.645Z,94843.00
2023-04-07T01:36:51.742Z,94849.00
2023-04-07T01:37:51.630Z,94849.00
2023-04-07T01:38:51.690Z,94847.00
2023-04-07T01:39:51.661Z,94847.00
2023-04-07T01:40:51.662Z,94851.00
2023-04-07T01:41:51.688Z,94849.00
2023-04-07T01:42:51.603Z,94853.00
2023-04-07T01:43:51.733Z,94849.00
2023-04-07T01:44:51.621Z,94851.00
2023-04-07T01:45:51.600Z,94851.00
2023-04-07T01:46:51.627Z,94849.00
2023-04-07T01:47:51.612Z,94849.00
2023-04-07T01:48:51.623Z,94849.00
2023-04-07T01:49:51.625Z,94849.00
2023-04-07T01:50:51.570Z,94849.00
2023-04-07T01:51:51.573Z,94849.00
2023-04-07T01:52:51.580Z,94849.00
2023-04-07T01:53:51.541Z,94849.00
2023-04-07T01:54:51.614Z,94849.00
2023-04-07T01:55:51.570Z,94849.00
2023-04-07T01:56:51.582Z,94847.00
2023-04-07T01:57:51.582Z,94847.00
2023-04-07T01:58:51.539Z,94845.00
2023-04-07T01:59:51.519Z,94843.00
2023-04-07T02:00:51.589Z,94847.00
2023-04-07T02:01:51.622Z,94845.00
2023-04-07T02:02:51.662Z,94847.00
2023-04-07T02:03:51.610Z,94845.00
2023-04-07T02:04:51.483Z,94843.00
2023-04-07T02:05:51.471Z,94845.00
2023-04-07T02:06:51.481Z,94845.00
2023-04-07T02:07:51.475Z,94839.00
2023-04-07T02:08:51.490Z,94841.00
2023-04-07T02:09:51.457Z,94843.00
2023-04-07T02:10:51.455Z,94839.00
2023-04-07T02:11:51.491Z,94837.00
2023-04-07T02:12:51.406Z,94837.00
2023-04-07T02:13:51.462Z,94837.00
2023-04-07T02:14:51.427Z,94835.00
2023-04-07T02:15:51.439Z,94837.00
2023-04-07T02:16:51.475Z,94837.00
2023-04-07T02:17:51.426Z,94835.00
2023-04-07T02:18:51.419Z,94835.00
2023-04-07T02:19:51.411Z,94833.00
2023-04-07T02:20:51.379Z,94831.00
2023-04-07T02:21:51.368Z,94833.00
2023-04-07T02:22:51.392Z,94835.00
2023-04-07T02:23:51.392Z,94837.00
2023-04-07T02:24:51.344Z,94837.00
2023-04-07T02:25:51.388Z,94837.00
2023-04-07T02:26:51.382Z,94837.00
2023-04-07T02:27:51.384Z,94831.00
2023-04-07T02:28:51.397Z,94829.00
2023-04-07T02:29:51.328Z,94829.00
2023-04-07T02:30:51.342Z,94831.00
2023-04-07T02:31:51.342Z,94829.00
2023-04-07T02:32:51.364Z,94831.00
2023-04-07T02:33:51.320Z,94829.00
2023-04-07T02:34:51.307Z,94827.00
2023-04-07T02:35:51.323Z,94825.00
2023-04-07T02:36:51.290Z,94825.00
2023-04-07T02:37:51.295Z,94823.00
2023-04-07T02:38:51.286Z,94823.00
2023-04-07T02:39:51.247Z,94821.00
2023-04-07T02:40:51.255Z,94821.00
2023-04-07T02:41:51.252Z,94821.00
2023-04-07T02:42:51.298Z,94817.00
2023-04-07T02:43:51.324Z,94817.00
2023-04-07T02:44:51.401Z,94815.00
2023-04-07T02:45:51.457Z,94815.00
2023-04-07T02:46:51.416Z,94815.00
2023-04-07T02:47:51.548Z,94815.00
2023-04-07T02:48:51.519Z,94815.00
2023-04-07T02:49:51.540Z,94815.00
2023-04-07T02:50:51.557Z,94815.00
2023-04-07T02:51:51.986Z,94813.00
2023-04-07T02:52:51.648Z,94813.00
2023-04-07T02:53:51.676Z,94813.00
2023-04-07T02:54:51.763Z,94811.00
2023-04-07T02:55:51.770Z,94811.00
2023-04-07T02:56:51.756Z,94808.00
2023-04-07T02:57:51.813Z,94811.00
2023-04-07T02:58:51.898Z,94810.00
2023-04-07T02:59:51.899Z,94810.00
2023-04-07T03:00:51.911Z,94806.00
2023-04-07T03:01:52.040Z,94804.00
2023-04-07T03:02:52.155Z,94806.00
2023-04-07T03:03:52.304Z,94806.00
2023-04-07T03:04:52.049Z,94806.00
2023-04-07T03:05:52.133Z,94804.00
2023-04-07T03:06:52.182Z,94806.00
2023-04-07T03:07:52.160Z,94804.00
2023-04-07T03:08:52.201Z,94804.00
2023-04-07T03:09:52.271Z,94804.00
2023-04-07T03:10:52.304Z,94806.00
2023-04-07T03:11:52.392Z,94806.00
2023-04-07T03:12:52.385Z,94802.00
2023-04-07T03:13:52.609Z,94808.00
2023-04-07T03:14:52.494Z,94806.00
2023-04-07T03:15:52.524Z,94800.00
2023-04-07T03:16:52.653Z,94798.00
2023-04-07T03:17:52.611Z,94800.00
2023-04-07T03:18:52.654Z,94800.00
2023-04-07T03:19:52.689Z,94798.00
2023-04-07T03:20:52.752Z,94800.00
2023-04-07T03:21:52.760Z,94800.00
2023-04-07T03:22:52.806Z,94800.00
2023-04-07T03:23:53.056Z,94800.00
2023-04-07T03:24:52.885Z,94800.00
2023-04-07T03:25:52.941Z,94798.00
2023-04-07T03:26:52.998Z,94796.00
2023-04-07T03:27:53.012Z,94798.00
2023-04-07T03:28:53.148Z,94800.00
2023-04-07T03:29:53.127Z,94800.00
2023-04-07T03:30:53.172Z,94796.00
2023-04-07T03:31:53.172Z,94798.00
2023-04-07T03:32:53.247Z,94800.00
2023-04-07T03:33:53.408Z,94798.00
2023-04-07T03:34:53.335Z,94794.00
2023-04-07T03:35:53.382Z,94796.00
2023-04-07T03:36:53.428Z,94794.00
2023-04-07T03:37:53.438Z,94792.00
2023-04-07T03:38:53.596Z,94792.00
2023-04-07T03:39:53.533Z,94794.00
2023-04-07T03:40:53.578Z,94794.00
2023-04-07T03:41:53.619Z,94792.00
2023-04-07T03:42:53.639Z,94790.00
2023-04-07T03:43:53.928Z,94790.00
2023-04-07T03:44:53.779Z,94790.00
2023-04-07T03:45:53.905Z,94786.00
2023-04-07T03:46:53.866Z,94786.00
2023-04-07T03:47:54.002Z,94790.00
2023-04-07T03:48:54.038Z,94788.00
2023-04-07T03:49:54.045Z,94786.00
2023-04-07T03:50:54.080Z,94786.00
2023-04-07T03:51:54.127Z,94786.00
2023-04-07T03:52:54.203Z,94786.00
2023-04-07T03:53:54.397Z,94784.00
2023-04-07T03:54:54.326Z,94782.00
2023-04-07T03:55:54.346Z,94784.00
2023-04-07T03:56:54.434Z,94784.00
2023-04-07T03:57:54.552Z,94788.00
2023-04-07T03:58:54.545Z,94788.00
2023-04-07T03:59:54.597Z,94788.00
2023-04-07T04:00:54.658Z,94786.00
2023-04-07T04:01:54.730Z,94786.00
2023-04-07T04:02:54.843Z,94786.00
2023-04-07T04:03:55.262Z,94788.00
2023-04-07T04:04:54.993Z,94786.00
2023-04-07T04:05:54.951Z,94784.00
2023-04-07T04:06:55.030Z,94784.00
2023-04-07T04:07:55.053Z,94784.00
2023-04-07T04:08:55.141Z,94782.00
2023-04-07T04:09:55.248Z,94782.00
2023-04-07T04:10:55.223Z,94782.00
2023-04-07T04:11:55.296Z,94780.00
2023-04-07T04:12:55.382Z,94778.00
2023-04-07T04:13:55.588Z,94782.00
2023-04-07T04:14:55.466Z,94782.00
2023-04-07T04:15:55.532Z,94780.00
2023-04-07T04:16:55.538Z,94780.00
2023-04-07T04:17:55.617Z,94776.00
2023-04-07T04:18:55.606Z,94778.00
2023-04-07T04:19:55.691Z,94776.00
2023-04-07T04:20:55.690Z,94776.00
2023-04-07T04:21:55.694Z,94774.00
2023-04-07T04:22:55.749Z,94774.00
2023-04-07T04:23:55.772Z,94776.00
2023-04-07T04:24:55.757Z,94776.00
2023-04-07T04:25:55.803Z,94776.00
2023-04-07T04:26:55.812Z,94778.00
2023-04-07T04:27:55.882Z,94776.00
2023-04-07T04:28:55.813Z,94776.00
2023-04-07T04:29:55.828Z,94772.00
2023-04-07T04:30:55.875Z,94778.00
2023-04-07T04:31:55.832Z,94774.00
2023-04-07T04:32:55.931Z,94770.00
2023-04-07T04:33:55.815Z,94774.00
2023-04-07T04:34:55.817Z,94772.00
2023-04-07T04:35:55.843Z,94772.00
2023-04-07T04:36:55.895Z,94768.00
2023-04-07T04:37:55.781Z,94770.00
2023-04-07T04:38:55.846Z,94770.00
2023-04-07T04:39:55.788Z,94768.00
2023-04-07T04:40:55.820Z,94770.00
2023-04-07T04:41:55.868Z,94768.00
2023-04-07T04:42:55.777Z,94770.00
2023-04-07T04:43:55.787Z,94770.00
2023-04-07T04:44:55.801Z,94766.00
2023-04-07T04:45:55.809Z,94766.00
2023-04-07T04:46:55.805Z,94766.00
2023-04-07T04:47:55.842Z,94768.00
2023-04-07T04:48:55.826Z,94764.00
2023-04-07T04:49:55.823Z,94766.00
2023-04-07T04:50:55.830Z,94766.00
2023-04-07T04:51:55.807Z,94764.00
2023-04-07T04:52:55.810Z,94766.00
2023-04-07T04:53:55.821Z,94764.00
2023-04-07T04:54:55.792Z,94766.00
2023-04-07T04:55:55.831Z,94766.00
2023-04-07T04:56:55.846Z,94764.00
2023-04-07T04:57:55.820Z,94764.00
2023-04-07T04:58:55.832Z,94764.00
2023-04-07T04:59:55.807Z,94768.00
2023-04-07T05:00:55.834Z,94762.00
2023-04-07T05:01:55.846Z,94762.00
2023-04-07T05:02:56.076Z,94764.00
2023-04-07T05:03:56.013Z,94760.00
2023-04-07T05:04:56.018Z,94760.00
2023-04-07T05:05:55.796Z,94762.00
2023-04-07T05:06:55.766Z,94760.00
2023-04-07T05:07:55.810Z,94762.00
2023-04-07T05:08:55.795Z,94762.00
2023-04-07T05:09:55.815Z,94760.00
2023-04-07T05:10:55.765Z,94762.00
2023-04-07T05:11:55.795Z,94759.00
2023-04-07T05:12:55.791Z,94759.00
2023-04-07T05:13:55.747Z,94760.00
2023-04-07T05:14:55.860Z,94757.00
2023-04-07T05:15:55.863Z,94759.00
2023-04-07T05:16:55.803Z,94759.00
2023-04-07T05:17:55.850Z,94759.00
2023-04-07T05:18:55.786Z,94757.00
2023-04-07T05:19:55.784Z,94760.00
2023-04-07T05:20:55.788Z,94759.00
2023-04-07T05:21:55.809Z,94757.00
2023-04-07T05:22:55.803Z,94759.00
2023-04-07T05:23:55.816Z,94757.00
2023-04-07T05:24:55.805Z,94757.00
2023-04-07T05:25:55.830Z,94757.00
2023-04-07T05:26:55.808Z,94760.00
2023-04-07T05:27:55.797Z,94759.00
2023-04-07T05:28:55.779Z,94759.00
2023-04-07T05:29:55.794Z,94760.00
2023-04-07T05:30:55.797Z,94760.00
2023-04-07T05:31:55.964Z,94760.00
2023-04-07T05:32:55.845Z,94760.00
2023-04-07T05:33:55.814Z,94757.00
2023-04-07T05:34:55.881Z,94759.00
2023-04-07T05:35:55.884Z,94759.00
2023-04-07T05:36:55.766Z,94757.00
2023-04-07T05:37:55.776Z,94757.00
2023-04-07T05:38:55.791Z,94757.00
2023-04-07T05:39:55.751Z,94757.00
2023-04-07T05:40:55.792Z,94759.00
2023-04-07T05:41:55.786Z,94759.00
2023-04-07T05:42:55.802Z,94759.00
2023-04-07T05:43:55.739Z,94755.00
2023-04-07T05:44:55.797Z,94757.00
2023-04-07T05:45:55.837Z,94757.00
2023-04-07T05:46:55.794Z,94755.00
2023-04-07T05:47:55.832Z,94755.00
2023-04-07T05:48:55.774Z,94759.00
2023-04-07T05:49:55.788Z,94759.00
2023-04-07T05:50:55.758Z,94759.00
2023-04-07T05:51:55.832Z,94759.00
2023-04-07T05:52:55.787Z,94760.00
2023-04-07T05:53:55.824Z,94759.00
2023-04-07T05:54:55.776Z,94760.00
2023-04-07T05:55:55.803Z,94757.00
2023-04-07T05:56:55.778Z,94762.00
2023-04-07T05:57:55.792Z,94764.00
2023-04-07T05:58:55.792Z,94762.00
2023-04-07T05:59:55.797Z,94764.00
2023-04-07T06:00:55.759Z,94762.00
2023-04-07T06:01:55.847Z,94764.00
2023-04-07T06:02:55.962Z,94766.00
2023-04-07T06:03:55.814Z,94768.00
2023-04-07T06:04:55.836Z,94770.00
2023-04-07T06:05:55.787Z,94768.00
2023-04-07T06:06:55.733Z,94766.00
2023-04-07T06:07:55.746Z,94766.00
2023-04-07T06:08:55.757Z,94766.00
2023-04-07T06:09:55.761Z,94766.00
2023-04-07T06:10:55.768Z,94762.00
2023-04-07T06:11:55.724Z,94766.00
2023-04-07T06:12:55.787Z,94762.00
2023-04-07T06:13:55.798Z,94762.00
2023-04-07T06:14:55.746Z,94764.00
2023-04-07T06:15:55.767Z,94764.00
2023-04-07T06:16:55.762Z,94766.00
2023-04-07T06:17:55.799Z,94768.00
2023-04-07T06:18:55.787Z,94768.00
2023-04-07T06:19:55.824Z,94768.00
2023-04-07T06:20:55.740Z,94770.00
2023-04-07T06:21:55.745Z,94772.00
2023-04-07T06:22:55.703Z,94770.00
2023-04-07T06:23:55.762Z,94772.00
2023-04-07T06:24:55.720Z,94770.00
2023-04-07T06:25:55.772Z,94768.00
2023-04-07T06:26:55.727Z,94768.00
2023-04-07T06:27:55.727Z,94768.00
2023-04-07T06:28:55.705Z,94768.00
2023-04-07T06:29:55.794Z,94768.00
2023-04-07T06:30:57.012Z,94770.00
2023-04-07T06:31:55.712Z,94768.00
2023-04-07T06:32:55.737Z,94768.00
2023-04-07T06:33:55.716Z,94768.00
2023-04-07T06:34:55.714Z,94766.00
2023-04-07T06:35:55.733Z,94764.00
2023-04-07T06:36:57.387Z,94768.00
2023-04-07T06:37:55.801Z,94762.00
2023-04-07T06:38:55.781Z,94762.00
2023-04-07T06:39:55.753Z,94760.00
2023-04-07T06:40:55.766Z,94759.00
2023-04-07T06:41:56.005Z,94760.00
2023-04-07T06:42:55.783Z,94757.00
2023-04-07T06:43:55.776Z,94759.00
2023-04-07T06:44:55.799Z,94759.00
2023-04-07T06:45:55.785Z,94755.00
2023-04-07T06:46:55.815Z,94755.00
2023-04-07T06:47:55.796Z,94755.00
2023-04-07T06:48:55.837Z,94753.00
2023-04-07T06:49:55.781Z,94753.00
2023-04-07T06:50:55.778Z,94755.00
2023-04-07T06:51:55.828Z,94757.00
2023-04-07T06:52:55.797Z,94759.00
2023-04-07T06:53:55.804Z,94757.00
2023-04-07T06:54:55.878Z,94759.00
2023-04-07T06:55:55.822Z,94757.00
2023-04-07T06:56:55.873Z,94757.00
2023-04-07T06:57:55.883Z,94755.00
2023-04-07T06:58:55.919Z,94753.00
2023-04-07T06:59:55.955Z,94755.00
2023-04-07T07:00:55.999Z,94755.00
2023-04-07T07:01:56.079Z,94753.00
2023-04-07T07:02:56.181Z,94755.00
2023-04-07T07:03:56.177Z,94755.00
2023-04-07T07:04:56.142Z,94759.00
2023-04-07T07:05:56.133Z,94759.00
2023-04-07T07:06:56.238Z,94757.00
2023-04-07T07:07:56.282Z,94755.00
2023-04-07T07:08:56.386Z,94755.00
2023-04-07T07:09:56.431Z,94757.00
2023-04-07T07:10:56.498Z,94757.00
2023-04-07T07:11:56.554Z,94757.00
2023-04-07T07:12:56.735Z,94755.00
2023-04-07T07:13:56.665Z,94753.00
2023-04-07T07:14:56.713Z,94751.00
2023-04-07T07:15:56.788Z,94753.00
2023-04-07T07:16:56.890Z,94755.00
2023-04-07T07:17:56.988Z,94753.00
2023-04-07T07:18:56.965Z,94749.00
2023-04-07T07:19:57.008Z,94751.00
2023-04-07T07:20:57.063Z,94751.00
2023-04-07T07:21:57.060Z,94749.00
2023-04-07T07:22:57.183Z,94747.00
2023-04-07T07:23:57.195Z,94747.00
2023-04-07T07:24:57.241Z,94753.00
2023-04-07T07:25:57.305Z,94753.00
2023-04-07T07:26:57.413Z,94751.00
2023-04-07T07:27:57.421Z,94753.00
2023-04-07T07:28:57.490Z,94751.00
2023-04-07T07:29:57.606Z,94747.00
2023-04-07T07:30:57.619Z,94751.00
2023-04-07T07:31:57.595Z,94747.00
2023-04-07T07:32:57.681Z,94747.00
2023-04-07T07:33:57.737Z,94745.00
2023-04-07T07:34:57.780Z,94745.00
2023-04-07T07:35:57.819Z,94747.00
2023-04-07T07:36:57.849Z,94745.00
2023-04-07T07:37:57.842Z,94745.00
2023-04-07T07:38:57.904Z,94743.00
2023-04-07T07:39:57.917Z,94741.00
2023-04-07T07:40:57.941Z,94739.00
2023-04-07T07:41:58.004Z,94737.00
2023-04-07T07:42:58.029Z,94737.00
2023-04-07T07:43:58.233Z,94737.00
2023-04-07T07:44:58.052Z,94737.00
2023-04-07T07:45:58.085Z,94735.00
2023-04-07T07:46:58.117Z,94733.00
2023-04-07T07:47:58.125Z,94733.00
2023-04-07T07:48:58.186Z,94735.00
2023-04-07T07:49:58.133Z,94733.00
2023-04-07T07:50:58.190Z,94733.00
2023-04-07T07:51:58.249Z,94733.00
2023-04-07T07:52:58.358Z,94733.00
2023-04-07T07:53:58.363Z,94731.00
2023-04-07T07:54:58.372Z,94729.00
2023-04-07T07:55:58.370Z,94725.00
2023-04-07T07:56:58.397Z,94725.00
2023-04-07T07:57:58.398Z,94727.00
2023-04-07T07:58:58.550Z,94723.00
2023-04-07T07:59:58.553Z,94723.00
2023-04-07T08:00:58.667Z,94721.00
2023-04-07T08:01:58.768Z,94719.00
2023-04-07T08:02:58.894Z,94717.00
2023-04-07T08:03:59.120Z,94715.00
2023-04-07T08:04:58.937Z,94717.00
2023-04-07T08:05:58.908Z,94715.00
2023-04-07T08:06:58.962Z,94713.00
2023-04-07T08:07:59.012Z,94717.00
2023-04-07T08:08:59.062Z,94713.00
2023-04-07T08:09:59.136Z,94713.00
2023-04-07T08:10:59.198Z,94713.00
2023-04-07T08:11:59.317Z,94710.00
2023-04-07T08:12:59.303Z,94712.00
2023-04-07T08:13:59.440Z,94713.00
2023-04-07T08:14:59.463Z,94712.00
2023-04-07T08:15:59.529Z,94710.00
2023-04-07T08:16:59.554Z,94710.00
2023-04-07T08:17:59.677Z,94710.00
2023-04-07T08:18:59.723Z,94708.00
2023-04-07T08:19:59.738Z,94708.00
2023-04-07T08:20:59.786Z,94706.00
2023-04-07T08:21:59.838Z,94704.00
2023-04-07T08:22:59.849Z,94704.00
2023-04-07T08:23:59.941Z,94700.00
2023-04-07T08:25:00.001Z,94700.00
2023-04-07T08:26:00.111Z,94700.00
2023-04-07T08:27:00.142Z,94696.00
2023-04-07T08:28:00.132Z,94698.00
2023-04-07T08:29:00.187Z,94690.00
2023-04-07T08:30:00.242Z,94696.00
2023-04-07T08:31:00.266Z,94692.00
2023-04-07T08:32:00.374Z,94690.00
2023-04-07T08:33:00.444Z,94686.00
2023-04-07T08:34:00.448Z,94688.00
2023-04-07T08:35:00.421Z,94684.00
2023-04-07T08:36:00.521Z,94680.00
2023-04-07T08:37:00.548Z,94684.00
2023-04-07T08:38:00.563Z,94678.00
2023-04-07T08:39:00.602Z,94680.00
2023-04-07T08:40:00.662Z,94676.00
2023-04-07T08:41:00.711Z,94678.00
2023-04-07T08:42:00.707Z,94676.00
2023-04-07T08:43:00.780Z,94672.00
2023-04-07T08:44:00.831Z,94672.00
2023-04-07T08:45:01.204Z,94676.00
2023-04-07T08:46:00.865Z,94674.00
2023-04-07T08:47:00.857Z,94672.00
2023-04-07T08:48:00.927Z,94668.00
2023-04-07T08:49:00.860Z,94670.00
2023-04-07T08:50:00.903Z,94672.00
2023-04-07T08:51:00.905Z,94670.00
2023-04-07T08:52:00.876Z,94666.00
2023-04-07T08:53:00.925Z,94664.00
2023-04-07T08:54:00.921Z,94661.00
2023-04-07T08:55:00.894Z,94659.00
2023-04-07T08:56:00.984Z,94657.00
2023-04-07T08:57:00.974Z,94661.00
2023-04-07T08:58:02.264Z,94657.00
2023-04-07T08:59:01.175Z,94662.00
2023-04-07T09:00:01.167Z,94661.00
2023-04-07T09:01:01.274Z,94657.00
2023-04-07T09:02:01.322Z,94659.00
2023-04-07T09:03:01.486Z,94655.00
2023-04-07T09:04:01.455Z,94653.00
2023-04-07T09:05:01.423Z,94649.00
2023-04-07T09:06:01.504Z,94651.00
2023-04-07T09:07:01.514Z,94649.00
2023-04-07T09:08:01.582Z,94645.00
2023-04-07T09:09:01.592Z,94643.00
2023-04-07T09:10:01.660Z,94643.00
2023-04-07T09:11:01.618Z,94641.00
2023-04-07T09:12:01.655Z,94639.00
2023-04-07T09:13:01.692Z,94637.00
2023-04-07T09:14:01.749Z,94635.00
2023-04-07T09:15:01.745Z,94629.00
2023-04-07T09:16:01.820Z,94633.00
2023-04-07T09:17:01.765Z,94631.00
2023-04-07T09:18:01.840Z,94629.00
2023-04-07T09:19:01.792Z,94625.00
2023-04-07T09:20:01.887Z,94623.00
2023-04-07T09:21:01.809Z,94619.00
2023-04-07T09:22:01.866Z,94619.00
2023-04-07T09:23:01.899Z,94621.00
2023-04-07T09:24:01.893Z,94611.00
2023-04-07T09:25:01.921Z,94609.00
2023-04-07T09:26:01.905Z,94608.00
2023-04-07T09:27:01.890Z,94604.00
2023-04-07T09:28:01.910Z,94602.00
2023-04-07T09:29:01.931Z,94604.00
2023-04-07T09:30:01.934Z,94604.00
2023-04-07T09:31:01.953Z,94598.00
2023-04-07T09:32:01.985Z,94596.00
2023-04-07T09:33:02.068Z,94592.00
2023-04-07T09:34:01.914Z,94594.00
2023-04-07T09:35:02.078Z,94592.00
2023-04-07T09:36:01.981Z,94592.00
2023-04-07T09:37:02.042Z,94590.00
2023-04-07T09:38:02.060Z,94588.00
2023-04-07T09:39:02.146Z,94584.00
2023-04-07T09:40:02.196Z,94582.00
2023-04-07T09:41:02.249Z,94580.00
2023-04-07T09:42:02.265Z,94578.00
2023-04-07T09:43:02.307Z,94576.00
2023-04-07T09:44:02.399Z,94574.00
2023-04-07T09:45:02.469Z,94574.00
2023-04-07T09:46:03.049Z,94574.00
2023-04-07T09:47:02.559Z,94572.00
2023-04-07T09:48:02.645Z,94568.00
2023-04-07T09:49:02.689Z,94566.00
2023-04-07T09:50:02.722Z,94566.00
2023-04-07T09:51:02.838Z,94564.00
2023-04-07T09:52:02.819Z,94566.00
2023-04-07T09:53:02.849Z,94568.00
2023-04-07T09:54:02.924Z,94564.00
2023-04-07T09:55:02.904Z,94562.00
2023-04-07T09:56:02.955Z,94560.00
2023-04-07T09:57:03.005Z,94562.00
2023-04-07T09:58:03.052Z,94557.00
2023-04-07T09:59:03.042Z,94557.00
2023-04-07T10:00:03.054Z,94557.00
2023-04-07T10:01:03.103Z,94555.00
2023-04-07T10:02:03.321Z,94551.00
2023-04-07T10:03:03.285Z,94549.00
2023-04-07T10:04:03.236Z,94549.00
2023-04-07T10:05:03.208Z,94545.00
2023-04-07T10:06:03.252Z,94545.00
2023-04-07T10:07:03.325Z,94543.00
2023-04-07T10:08:03.364Z,94543.00
2023-04-07T10:09:03.393Z,94539.00
2023-04-07T10:10:03.403Z,94537.00
2023-04-07T10:11:03.433Z,94531.00
2023-04-07T10:12:03.463Z,94531.00
2023-04-07T10:13:03.472Z,94529.00
2023-04-07T10:14:03.521Z,94527.00
2023-04-07T10:15:03.568Z,94525.00
2023-04-07T10:16:03.601Z,94525.00
2023-04-07T10:17:03.711Z,94523.00
2023-04-07T10:18:03.708Z,94523.00
2023-04-07T10:19:03.662Z,94523.00
2023-04-07T10:20:03.686Z,94521.00
2023-04-07T10:21:03.710Z,94519.00
2023-04-07T10:22:03.781Z,94519.00
2023-04-07T10:23:03.782Z,94515.00
2023-04-07T10:24:03.780Z,94515.00
2023-04-07T10:25:03.858Z,94515.00
2023-04-07T10:26:03.804Z,94515.00
2023-04-07T10:27:03.858Z,94511.00
2023-04-07T10:28:03.858Z,94511.00
2023-04-07T10:29:03.858Z,94506.00
2023-04-07T10:30:03.862Z,94507.00
2023-04-07T10:31:03.956Z,94504.00
2023-04-07T10:32:03.952Z,94504.00
2023-04-07T10:33:03.942Z,94504.00
2023-04-07T10:34:03.926Z,94502.00
2023-04-07T10:35:03.981Z,94502.00
2023-04-07T10:36:04.061Z,94500.00
2023-04-07T10:37:03.919Z,94500.00
2023-04-07T10:38:03.955Z,94498.00
2023-04-07T10:39:03.911Z,94496.00
2023-04-07T10:40:03.908Z,94496.00
2023-04-07T10:41:03.894Z,94494.00
2023-04-07T10:42:03.905Z,94490.00
2023-04-07T10:43:03.920Z,94490.00
2023-04-07T10:44:03.924Z,94488.00
2023-04-07T10:45:03.926Z,94484.00
2023-04-07T10:46:04.117Z,94482.00
2023-04-07T10:47:03.997Z,94476.00
2023-04-07T10:48:04.064Z,94476.00
2023-04-07T10:49:04.056Z,94472.00
2023-04-07T10:50:04.103Z,94476.00
2023-04-07T10:51:04.179Z,94476.00
2023-04-07T10:52:04.247Z,94472.00
2023-04-07T10:53:04.280Z,94472.00
2023-04-07T10:54:04.360Z,94472.00
2023-04-07T10:55:04.404Z,94474.00
2023-04-07T10:56:04.457Z,94472.00
2023-04-07T10:57:04.520Z,94468.00
2023-04-07T10:58:04.565Z,94466.00
2023-04-07T10:59:04.616Z,94466.00
2023-04-07T11:00:04.686Z,94466.00
2023-04-07T11:01:04.816Z,94462.00
2023-04-07T11:02:04.847Z,94460.00
2023-04-07T11:03:05.062Z,94459.00
2023-04-07T11:04:04.977Z,94459.00
2023-04-07T11:05:04.963Z,94457.00
2023-04-07T11:06:05.000Z,94455.00
2023-04-07T11:07:05.040Z,94455.00
2023-04-07T11:08:05.156Z,94451.00
2023-04-07T11:09:05.222Z,94451.00
2023-04-07T11:10:05.266Z,94449.00
2023-04-07T11:11:05.339Z,94449.00
2023-04-07T11:12:05.401Z,94449.00
2023-04-07T11:13:05.472Z,94445.00
2023-04-07T11:14:05.496Z,94445.00
2023-04-07T11:15:05.577Z,94445.00
2023-04-07T11:16:05.647Z,94443.00
2023-04-07T11:17:05.694Z,94441.00
2023-04-07T11:18:05.817Z,94441.00
2023-04-07T11:19:05.795Z,94439.00
2023-04-07T11:20:05.848Z,94437.00
2023-04-07T11:21:05.916Z,94435.00
2023-04-07T11:22:06.500Z,94433.00
2023-04-07T11:23:06.079Z,94437.00
2023-04-07T11:24:06.116Z,94435.00
2023-04-07T11:25:06.161Z,94433.00
2023-04-07T11:26:06.214Z,94431.00
2023-04-07T11:27:06.302Z,94431.00
2023-04-07T11:28:06.350Z,94431.00
2023-04-07T11:29:06.545Z,94429.00
2023-04-07T11:30:06.471Z,94427.00
2023-04-07T11:31:06.591Z,94425.00
2023-04-07T11:32:06.608Z,94425.00
2023-04-07T11:33:06.697Z,94423.00
2023-04-07T11:34:06.728Z,94421.00
2023-04-07T11:35:06.766Z,94421.00
2023-04-07T11:36:06.856Z,94417.00
2023-04-07T11:37:06.892Z,94419.00
2023-04-07T11:38:06.944Z,94419.00
2023-04-07T11:39:06.997Z,94417.00
2023-04-07T11:40:07.061Z,94419.00
2023-04-07T11:41:07.109Z,94419.00
2023-04-07T11:42:07.163Z,94417.00
2023-04-07T11:43:07.227Z,94419.00
2023-04-07T11:44:07.354Z,94415.00
2023-04-07T11:45:08.498Z,94415.00